Time;durP1;ratioP1;P1;durP2;ratioP2;P2;SDS_P1;SDS_P2;PMS_P1;PMS_P2;Temp;Humidity;BMP_temperature;BMP_pressure;BME280_temperature;BME280_humidity;BME280_pressure;Samples;Min_cycle;Max_cycle;Signal;HPM_P1;HPM_P2
2022/06/09 00:01:02;;;;;;;21.98;4.60;;;;;;;;;;4977789;28;20053;-61
2022/06/09 00:03:33;;;;;;;34.55;6.53;;;;;;;;;;4969229;28;20034;-61
2022/06/09 00:06:00;;;;;;;20.02;5.57;;;;;;;;;;4984368;28;20034;-61
2022/06/09 00:08:30;;;;;;;20.23;5.32;;;;;;;;;;4982960;28;20097;-60
2022/06/09 00:10:59;;;;;;;20.83;5.50;;;;;;;;;;4982126;28;20039;-60
2022/06/09 00:13:26;;;;;;;24.30;4.80;;;;;;;;;;4987621;28;20062;-61
2022/06/09 00:15:54;;;;;;;27.38;5.47;;;;;;;;;;4977891;28;20031;-59
2022/06/09 00:18:22;;;;;;;34.15;6.25;;;;;;;;;;4977471;28;20031;-59
2022/06/09 00:20:49;;;;;;;24.52;5.70;;;;;;;;;;4986252;28;20045;-59
2022/06/09 00:23:17;;;;;;;23.00;4.95;;;;;;;;;;4981016;28;20097;-59
2022/06/09 00:25:45;;;;;;;28.48;5.85;;;;;;;;;;4985248;28;20042;-59
2022/06/09 00:28:11;;;;;;;24.58;5.55;;;;;;;;;;4991617;28;20042;-58
2022/06/09 00:30:39;;;;;;;24.27;5.72;;;;;;;;;;4980716;28;20545;-59
2022/06/09 00:33:06;;;;;;;20.17;5.28;;;;;;;;;;4985220;28;20093;-59
2022/06/09 00:35:33;;;;;;;26.60;5.57;;;;;;;;;;4983823;28;20420;-59
2022/06/09 00:38:00;;;;;;;32.90;6.50;;;;;;;;;;4991875;28;20448;-58
2022/06/09 00:40:27;;;;;;;31.90;5.88;;;;;;;;;;4988630;28;20034;-58
2022/06/09 00:42:54;;;;;;;26.27;5.65;;;;;;;;;;4980470;28;20062;-59
2022/06/09 00:45:42;;;;;;;21.25;5.28;;;;;;;;;;4982910;28;20034;-58
2022/06/09 00:48:26;;;;;;;22.63;5.78;;;;;;;;;;4984176;28;20042;-59
2022/06/09 00:50:58;;;;;;;20.42;5.57;;;;;;;;;;4978434;28;20034;-58
2022/06/09 00:53:29;;;;;;;18.95;5.13;;;;;;;;;;4988828;28;20053;-57
2022/06/09 00:55:57;;;;;;;18.65;5.57;;;;;;;;;;4975934;28;20023;-59
2022/06/09 00:58:25;;;;;;;25.73;5.90;;;;;;;;;;4976166;28;20440;-60
2022/06/09 01:00:53;;;;;;;25.58;6.40;;;;;;;;;;4971007;28;20031;-59
2022/06/09 01:03:23;;;;;;;25.35;6.90;;;;;;;;;;4971057;28;20043;-59
2022/06/09 01:05:52;;;;;;;27.83;7.10;;;;;;;;;;4974501;28;20485;-59
2022/06/09 01:08:19;;;;;;;28.80;7.53;;;;;;;;;;4971082;28;20030;-59
2022/06/09 01:10:46;;;;;;;28.98;8.27;;;;;;;;;;4970900;28;20035;-60
2022/06/09 01:13:13;;;;;;;47.50;12.60;;;;;;;;;;4977221;28;20508;-59
2022/06/09 01:15:58;;;;;;;72.93;17.75;;;;;;;;;;4983280;28;20035;-59
2022/06/09 01:18:28;;;;;;;78.88;21.48;;;;;;;;;;4987904;28;20030;-59
2022/06/09 01:20:57;;;;;;;75.30;18.40;;;;;;;;;;4982898;28;20042;-60
2022/06/09 01:23:30;;;;;;;86.85;20.27;;;;;;;;;;4973826;28;20098;-59
2022/06/09 01:26:00;;;;;;;78.28;21.50;;;;;;;;;;4966416;28;20042;-59
2022/06/09 01:28:37;;;;;;;83.90;21.10;;;;;;;;;;4985841;28;20093;-60
2022/06/09 01:31:24;;;;;;;86.82;21.92;;;;;;;;;;4982183;28;20089;-59
2022/06/09 01:33:54;;;;;;;87.50;22.80;;;;;;;;;;4983279;28;20423;-59
2022/06/09 01:36:27;;;;;;;84.63;20.48;;;;;;;;;;4983720;28;20030;-59
2022/06/09 01:38:57;;;;;;;89.15;23.10;;;;;;;;;;4987613;28;20042;-59
2022/06/09 01:41:24;;;;;;;112.25;22.85;;;;;;;;;;4984848;28;20602;-60
2022/06/09 01:43:53;;;;;;;103.45;22.42;;;;;;;;;;4975263;28;20069;-59
2022/06/09 01:46:32;;;;;;;85.03;20.42;;;;;;;;;;4984161;28;20080;-59
2022/06/09 01:49:10;;;;;;;74.88;19.42;;;;;;;;;;4972509;28;20070;-59
2022/06/09 01:51:38;;;;;;;78.18;19.63;;;;;;;;;;4969111;28;20129;-59
2022/06/09 01:54:16;;;;;;;79.03;19.48;;;;;;;;;;4972760;28;20038;-60
2022/06/09 01:56:43;;;;;;;78.20;19.13;;;;;;;;;;4976667;28;20433;-57
2022/06/09 01:59:39;;;;;;;80.00;19.27;;;;;;;;;;4971712;28;20513;-59
2022/06/09 02:02:12;;;;;;;67.07;17.20;;;;;;;;;;4958240;28;20035;-59
2022/06/09 02:04:42;;;;;;;75.45;17.58;;;;;;;;;;4969782;28;20031;-60
2022/06/09 02:07:10;;;;;;;71.45;17.10;;;;;;;;;;4976409;28;20027;-61
2022/06/09 02:09:38;;;;;;;74.13;17.83;;;;;;;;;;4976010;28;20019;-62
2022/06/09 02:12:09;;;;;;;62.45;16.55;;;;;;;;;;4977103;28;20090;-61
2022/06/09 02:14:37;;;;;;;57.30;16.27;;;;;;;;;;4980194;28;20042;-62
2022/06/09 02:17:06;;;;;;;63.10;16.85;;;;;;;;;;4976011;28;20115;-62
2022/06/09 02:19:34;;;;;;;55.72;16.45;;;;;;;;;;4974622;28;20145;-61
2022/06/09 02:22:01;;;;;;;50.38;16.50;;;;;;;;;;4974645;28;20109;-61
2022/06/09 02:24:30;;;;;;;53.42;15.00;;;;;;;;;;4974316;28;20066;-61
2022/06/09 02:26:56;;;;;;;55.63;15.52;;;;;;;;;;4977077;28;20041;-61
2022/06/09 02:29:24;;;;;;;55.80;14.73;;;;;;;;;;4978536;28;20081;-62
2022/06/09 02:31:51;;;;;;;52.20;15.73;;;;;;;;;;4979275;28;20046;-63
2022/06/09 02:34:18;;;;;;;49.13;14.45;;;;;;;;;;4976009;28;20030;-62
2022/06/09 02:36:45;;;;;;;49.63;15.02;;;;;;;;;;4971575;28;20031;-61
2022/06/09 02:39:12;;;;;;;52.50;13.80;;;;;;;;;;4971871;28;20023;-62
2022/06/09 02:41:39;;;;;;;51.65;14.18;;;;;;;;;;4972168;28;20107;-62
2022/06/09 02:44:06;;;;;;;50.72;14.00;;;;;;;;;;4971863;28;20043;-61
2022/06/09 02:46:33;;;;;;;43.55;14.07;;;;;;;;;;4972745;28;20434;-62
2022/06/09 02:49:00;;;;;;;47.88;14.45;;;;;;;;;;4978107;28;20028;-62
2022/06/09 02:51:29;;;;;;;47.92;13.80;;;;;;;;;;4987044;28;20465;-62
2022/06/09 02:53:56;;;;;;;47.05;14.30;;;;;;;;;;4983424;28;20022;-62
2022/06/09 02:56:23;;;;;;;52.35;13.38;;;;;;;;;;4987636;28;20022;-61
2022/06/09 02:58:50;;;;;;;41.55;12.25;;;;;;;;;;4985237;28;20022;-62
2022/06/09 03:01:17;;;;;;;42.13;13.45;;;;;;;;;;4989162;28;20030;-61
2022/06/09 03:03:44;;;;;;;46.63;12.55;;;;;;;;;;4993545;28;20057;-61
2022/06/09 03:06:11;;;;;;;49.35;13.35;;;;;;;;;;4993496;28;20057;-61
2022/06/09 03:08:38;;;;;;;35.00;12.45;;;;;;;;;;4994589;28;20511;-61
2022/06/09 03:11:06;;;;;;;42.60;12.90;;;;;;;;;;4993584;28;20034;-61
2022/06/09 03:13:33;;;;;;;45.38;12.63;;;;;;;;;;4994344;28;20053;-61
2022/06/09 03:16:00;;;;;;;36.10;12.68;;;;;;;;;;4994032;28;20511;-61
2022/06/09 03:18:27;;;;;;;36.92;11.75;;;;;;;;;;4993359;28;20037;-61
2022/06/09 03:20:54;;;;;;;35.45;11.32;;;;;;;;;;4993996;28;20181;-62
2022/06/09 03:23:21;;;;;;;37.30;11.90;;;;;;;;;;4993200;28;20045;-61
2022/06/09 03:25:48;;;;;;;36.63;11.95;;;;;;;;;;4993839;28;20030;-61
2022/06/09 03:28:15;;;;;;;40.10;12.75;;;;;;;;;;4993592;28;20093;-61
2022/06/09 03:30:42;;;;;;;35.03;11.50;;;;;;;;;;4993188;28;20664;-61
2022/06/09 03:33:09;;;;;;;42.55;11.50;;;;;;;;;;4993808;28;20068;-61
2022/06/09 03:35:36;;;;;;;32.28;10.93;;;;;;;;;;4993203;28;20109;-61
2022/06/09 03:38:03;;;;;;;41.25;11.63;;;;;;;;;;4993837;28;20404;-61
2022/06/09 03:40:31;;;;;;;34.55;10.90;;;;;;;;;;4993471;28;20022;-61
2022/06/09 03:42:58;;;;;;;32.47;10.45;;;;;;;;;;4993453;28;20042;-61
2022/06/09 03:45:25;;;;;;;31.75;10.23;;;;;;;;;;4993680;28;20034;-62
2022/06/09 03:47:52;;;;;;;34.40;11.32;;;;;;;;;;4993041;28;20564;-61
2022/06/09 03:50:21;;;;;;;30.38;10.40;;;;;;;;;;4993411;28;20027;-61
2022/06/09 03:52:49;;;;;;;31.45;10.80;;;;;;;;;;4992957;28;20447;-61
2022/06/09 03:55:16;;;;;;;29.75;10.43;;;;;;;;;;4993082;28;20086;-61
2022/06/09 03:57:43;;;;;;;25.70;10.20;;;;;;;;;;4993500;28;20036;-61
2022/06/09 04:00:13;;;;;;;33.58;10.68;;;;;;;;;;4993009;28;20389;-61
2022/06/09 04:02:40;;;;;;;30.92;10.27;;;;;;;;;;4993448;28;20054;-61
2022/06/09 04:05:07;;;;;;;29.60;10.48;;;;;;;;;;4992866;28;20046;-61
2022/06/09 04:07:34;;;;;;;30.05;10.52;;;;;;;;;;4992877;28;20034;-61
2022/06/09 04:10:01;;;;;;;26.70;9.57;;;;;;;;;;4993185;28;20049;-61
2022/06/09 04:12:28;;;;;;;31.55;10.23;;;;;;;;;;4993193;28;20086;-61
2022/06/09 04:14:55;;;;;;;31.15;9.32;;;;;;;;;;4993163;28;20038;-61
2022/06/09 04:17:22;;;;;;;29.52;9.18;;;;;;;;;;4993067;28;20061;-62
2022/06/09 04:19:49;;;;;;;30.88;9.35;;;;;;;;;;4992729;28;20073;-61
2022/06/09 04:22:16;;;;;;;25.13;9.07;;;;;;;;;;4992988;28;20494;-61
2022/06/09 04:24:43;;;;;;;26.38;9.05;;;;;;;;;;4993077;28;20030;-62
2022/06/09 04:27:10;;;;;;;23.20;9.23;;;;;;;;;;4993089;28;20045;-61
2022/06/09 04:29:37;;;;;;;24.73;9.05;;;;;;;;;;4992685;28;20033;-61
2022/06/09 04:32:04;;;;;;;23.20;9.20;;;;;;;;;;4991667;28;20566;-62
2022/06/09 04:34:31;;;;;;;24.50;9.57;;;;;;;;;;4992618;28;20044;-61
2022/06/09 04:37:02;;;;;;;27.05;8.75;;;;;;;;;;4993014;28;20145;-61
2022/06/09 04:39:29;;;;;;;26.00;8.77;;;;;;;;;;4992716;28;20086;-61
2022/06/09 04:41:56;;;;;;;22.02;8.63;;;;;;;;;;4992834;28;20034;-62
2022/06/09 04:44:23;;;;;;;22.30;8.68;;;;;;;;;;4992905;28;20038;-61
2022/06/09 04:46:50;;;;;;;24.25;8.63;;;;;;;;;;4992069;28;20038;-61
2022/06/09 04:49:16;;;;;;;26.58;8.82;;;;;;;;;;4992879;28;20366;-61
2022/06/09 04:51:43;;;;;;;21.27;8.30;;;;;;;;;;4992814;28;20026;-61
2022/06/09 04:54:11;;;;;;;19.88;8.82;;;;;;;;;;4992428;28;20041;-61
2022/06/09 04:56:37;;;;;;;25.20;8.13;;;;;;;;;;4992758;28;20513;-61
2022/06/09 04:59:04;;;;;;;28.23;8.60;;;;;;;;;;4974571;28;20045;-61
2022/06/09 05:01:31;;;;;;;21.27;8.32;;;;;;;;;;4992795;28;20034;-61
2022/06/09 05:03:59;;;;;;;24.75;8.10;;;;;;;;;;4992603;28;20445;-61
2022/06/09 05:06:26;;;;;;;25.60;8.70;;;;;;;;;;4992088;28;20499;-61
2022/06/09 05:08:55;;;;;;;21.98;8.02;;;;;;;;;;4992896;28;20518;-61
2022/06/09 05:11:23;;;;;;;20.83;7.75;;;;;;;;;;4991747;28;20105;-61
2022/06/09 05:13:50;;;;;;;18.25;7.22;;;;;;;;;;4992654;28;20088;-61
2022/06/09 05:16:17;;;;;;;19.92;7.20;;;;;;;;;;4992269;28;20026;-61
2022/06/09 05:18:44;;;;;;;17.80;7.15;;;;;;;;;;4992143;28;20041;-61
2022/06/09 05:21:11;;;;;;;22.15;9.05;;;;;;;;;;4992680;28;20030;-61
2022/06/09 05:23:39;;;;;;;17.92;7.07;;;;;;;;;;4991748;28;20157;-61
2022/06/09 05:26:06;;;;;;;21.63;7.47;;;;;;;;;;4992526;28;20560;-61
2022/06/09 05:28:34;;;;;;;18.55;7.75;;;;;;;;;;4992298;28;20047;-61
2022/06/09 05:31:01;;;;;;;16.88;7.22;;;;;;;;;;4992074;28;20031;-61
2022/06/09 05:33:28;;;;;;;16.30;6.78;;;;;;;;;;4992221;28;20117;-61
2022/06/09 05:35:55;;;;;;;16.10;6.50;;;;;;;;;;4991851;28;20043;-61
2022/06/09 05:46:40;;;;;;;14.40;6.60;;;;;;;;;;4997490;28;20404;-60
2022/06/09 05:49:08;;;;;;;14.48;6.68;;;;;;;;;;4997549;28;20160;-61
2022/06/09 05:51:35;;;;;;;13.60;5.78;;;;;;;;;;4995978;28;20496;-61
2022/06/09 05:54:03;;;;;;;16.65;6.93;;;;;;;;;;4996043;28;20030;-61
2022/06/09 05:56:29;;;;;;;15.75;6.38;;;;;;;;;;4994949;28;20392;-61
2022/06/09 05:58:56;;;;;;;13.43;5.80;;;;;;;;;;4995848;28;20113;-61
2022/06/09 06:01:23;;;;;;;14.52;6.25;;;;;;;;;;4995614;28;20031;-61
2022/06/09 06:03:50;;;;;;;12.52;5.78;;;;;;;;;;4995118;28;20030;-61
2022/06/09 06:06:36;;;;;;;15.52;6.35;;;;;;;;;;4995135;28;20069;-61
2022/06/09 06:09:04;;;;;;;14.95;6.80;;;;;;;;;;4995553;28;20037;-61
2022/06/09 06:11:31;;;;;;;12.25;5.47;;;;;;;;;;4995442;28;20049;-61
2022/06/09 06:13:58;;;;;;;13.68;6.43;;;;;;;;;;4995654;28;20039;-61
2022/06/09 06:16:25;;;;;;;20.02;6.60;;;;;;;;;;4995953;28;20022;-61
2022/06/09 06:18:52;;;;;;;18.67;6.47;;;;;;;;;;4994934;28;20153;-61
2022/06/09 06:21:20;;;;;;;14.65;6.13;;;;;;;;;;4995802;28;20029;-61
2022/06/09 06:23:47;;;;;;;11.18;5.43;;;;;;;;;;4996454;28;20042;-61
2022/06/09 06:26:15;;;;;;;13.05;5.88;;;;;;;;;;4996753;28;20477;-61
2022/06/09 06:28:42;;;;;;;11.73;5.45;;;;;;;;;;4996195;28;20477;-61
2022/06/09 06:31:09;;;;;;;12.30;5.60;;;;;;;;;;4994572;28;20036;-61
2022/06/09 06:33:36;;;;;;;10.68;5.50;;;;;;;;;;4994391;28;20509;-61
2022/06/09 06:36:02;;;;;;;14.25;5.90;;;;;;;;;;4994583;28;20049;-61
2022/06/09 06:38:30;;;;;;;13.27;5.32;;;;;;;;;;4994098;28;20038;-60
2022/06/09 06:40:57;;;;;;;16.15;5.35;;;;;;;;;;4994534;28;20385;-60
2022/06/09 06:43:24;;;;;;;13.93;5.07;;;;;;;;;;4994392;28;20026;-61
2022/06/09 06:45:52;;;;;;;12.23;5.18;;;;;;;;;;4994339;28;20069;-61
2022/06/09 06:48:19;;;;;;;11.13;5.05;;;;;;;;;;4994270;28;20117;-61
2022/06/09 06:50:46;;;;;;;10.77;5.35;;;;;;;;;;4994022;28;20037;-61
2022/06/09 06:53:13;;;;;;;12.60;5.25;;;;;;;;;;4993911;28;20033;-61
2022/06/09 06:55:40;;;;;;;9.75;5.28;;;;;;;;;;4993915;28;20030;-61
2022/06/09 06:58:08;;;;;;;9.50;5.22;;;;;;;;;;4995146;28;20101;-61
2022/06/09 07:00:35;;;;;;;16.20;5.18;;;;;;;;;;4994014;28;20026;-61
2022/06/09 07:03:02;;;;;;;10.80;4.75;;;;;;;;;;5000638;28;20026;-61
2022/06/09 07:08:46;;;;;;;11.02;4.93;;;;;;;;;;5015429;28;20065;-61
2022/06/09 07:14:29;;;;;;;9.23;4.55;;;;;;;;;;5015340;28;20065;-61
2022/06/09 07:20:13;;;;;;;9.70;4.60;;;;;;;;;;5015227;28;20121;-61
2022/06/09 07:25:57;;;;;;;9.10;4.55;;;;;;;;;;5015163;28;20148;-61
2022/06/09 07:31:13;;;;;;;10.02;4.47;;;;;;;;;;4962223;28;20043;-52
2022/06/09 07:33:41;;;;;;;8.43;4.15;;;;;;;;;;4974666;28;20031;-51
2022/06/09 07:36:11;;;;;;;9.88;4.70;;;;;;;;;;4975073;28;20042;-52
2022/06/09 07:38:38;;;;;;;13.15;4.47;;;;;;;;;;4974407;28;20106;-51
2022/06/09 07:41:06;;;;;;;7.97;4.32;;;;;;;;;;4974800;28;20520;-49
2022/06/09 07:43:33;;;;;;;8.50;4.47;;;;;;;;;;4974128;28;20027;-51
2022/06/09 07:46:00;;;;;;;8.50;4.65;;;;;;;;;;4974807;28;20039;-53
2022/06/09 07:48:27;;;;;;;10.20;4.25;;;;;;;;;;4974460;28;20476;-52
2022/06/09 07:50:54;;;;;;;11.52;4.70;;;;;;;;;;4974206;28;20497;-51
2022/06/09 07:53:22;;;;;;;7.63;3.97;;;;;;;;;;4973709;28;20126;-49
2022/06/09 07:55:50;;;;;;;10.38;4.78;;;;;;;;;;4974479;28;20106;-47
2022/06/09 07:58:17;;;;;;;11.23;4.38;;;;;;;;;;4974569;28;20039;-48
2022/06/09 08:00:44;;;;;;;8.32;4.38;;;;;;;;;;4974687;28;20038;-51
2022/06/09 08:03:16;;;;;;;7.32;4.47;;;;;;;;;;4974073;28;20030;-51
2022/06/09 08:05:43;;;;;;;10.52;4.22;;;;;;;;;;4973898;28;20023;-55
2022/06/09 08:08:10;;;;;;;7.45;4.03;;;;;;;;;;4974540;28;20089;-51
2022/06/09 08:10:38;;;;;;;9.93;4.13;;;;;;;;;;4974056;28;20546;-54
2022/06/09 08:13:05;;;;;;;7.82;4.40;;;;;;;;;;4973709;28;20103;-49
2022/06/09 08:15:32;;;;;;;8.15;4.15;;;;;;;;;;4973324;28;20388;-55
2022/06/09 08:18:00;;;;;;;8.43;4.25;;;;;;;;;;4974039;28;20062;-51
2022/06/09 08:20:28;;;;;;;9.65;4.43;;;;;;;;;;4973697;28;20034;-50
2022/06/09 08:23:08;;;;;;;9.27;3.70;;;;;;;;;;4973659;28;20481;-54
2022/06/09 08:25:35;;;;;;;7.88;4.18;;;;;;;;;;4973822;28;20038;-49
2022/06/09 08:28:03;;;;;;;6.05;3.83;;;;;;;;;;4973738;28;20496;-54
2022/06/09 08:30:31;;;;;;;8.02;4.57;;;;;;;;;;4973593;28;20054;-52
2022/06/09 08:32:58;;;;;;;7.18;4.00;;;;;;;;;;4972984;28;20029;-53
2022/06/09 08:35:25;;;;;;;7.30;4.22;;;;;;;;;;4973903;28;20030;-51
2022/06/09 08:37:53;;;;;;;9.73;4.07;;;;;;;;;;4972558;28;20057;-51
2022/06/09 08:40:22;;;;;;;7.57;4.22;;;;;;;;;;4973402;28;20480;-50
2022/06/09 08:42:49;;;;;;;7.13;3.97;;;;;;;;;;4974003;28;20027;-52
2022/06/09 08:45:25;;;;;;;8.15;3.63;;;;;;;;;;4973264;28;20034;-52
2022/06/09 08:47:54;;;;;;;7.20;4.00;;;;;;;;;;4973659;28;20501;-54
2022/06/09 08:50:24;;;;;;;6.28;3.63;;;;;;;;;;4973415;28;20441;-51
2022/06/09 08:53:08;;;;;;;7.38;4.25;;;;;;;;;;4973699;28;20476;-51
2022/06/09 08:55:44;;;;;;;7.28;4.18;;;;;;;;;;4973672;28;20680;-47
2022/06/09 08:58:18;;;;;;;7.63;4.40;;;;;;;;;;4973138;28;20544;-49
2022/06/09 09:00:50;;;;;;;7.00;3.60;;;;;;;;;;4973144;28;20441;-49
2022/06/09 09:03:19;;;;;;;8.68;4.07;;;;;;;;;;4973539;28;20165;-53
2022/06/09 09:05:59;;;;;;;6.75;3.50;;;;;;;;;;4973280;28;20047;-51
2022/06/09 09:08:25;;;;;;;7.97;3.78;;;;;;;;;;4973207;28;20041;-48
2022/06/09 09:10:57;;;;;;;8.38;3.92;;;;;;;;;;4973014;28;20031;-55
2022/06/09 09:13:32;;;;;;;8.40;3.92;;;;;;;;;;4956217;28;20440;-53
2022/06/09 09:16:25;;;;;;;6.03;3.47;;;;;;;;;;4973273;28;20393;-49
2022/06/09 09:18:55;;;;;;;5.00;3.47;;;;;;;;;;4954608;28;20619;-51
2022/06/09 09:21:27;;;;;;;6.00;3.45;;;;;;;;;;4977229;28;20113;-52
2022/06/09 09:24:00;;;;;;;6.07;3.55;;;;;;;;;;4960580;28;20046;-53
2022/06/09 09:26:28;;;;;;;6.95;3.33;;;;;;;;;;4959501;28;20058;-48
2022/06/09 09:29:03;;;;;;;6.28;3.30;;;;;;;;;;4977030;28;20035;-48
2022/06/09 09:31:50;;;;;;;6.60;3.60;;;;;;;;;;4977123;28;20023;-52
2022/06/09 09:34:34;;;;;;;6.35;3.10;;;;;;;;;;4977267;28;20130;-51
2022/06/09 09:37:04;;;;;;;8.20;3.78;;;;;;;;;;4976786;28;20031;-50
2022/06/09 09:39:41;;;;;;;5.28;3.03;;;;;;;;;;4977459;28;20034;-54
2022/06/09 09:42:14;;;;;;;6.60;3.17;;;;;;;;;;4976865;28;20035;-52
2022/06/09 09:44:40;;;;;;;;;;;;;;;;;;4977609;28;20105;-53
2022/06/09 09:47:07;;;;;;;5.78;3.33;;;;;;;;;;4976442;28;19929;-53
2022/06/09 09:49:44;;;;;;;5.57;3.25;;;;;;;;;;4976860;28;20026;-52
2022/06/09 09:52:29;;;;;;;5.95;3.15;;;;;;;;;;4976858;28;20046;-49
2022/06/09 09:54:55;;;;;;;6.03;3.15;;;;;;;;;;4964161;28;20716;-51
2022/06/09 09:57:23;;;;;;;6.82;4.13;;;;;;;;;;4937654;29;20126;-49
2022/06/09 09:59:54;;;;;;;7.40;3.45;;;;;;;;;;4936888;29;20042;-50
2022/06/09 10:08:40;;;;;;;11.95;3.72;;;;;;;;;;4937270;29;20102;-51
2022/06/09 10:14:06;;;;;;;8.57;3.03;;;;;;;;;;4935888;29;20074;-46
2022/06/09 10:16:33;;;;;;;5.85;3.33;;;;;;;;;;4937354;29;20027;-48
2022/06/09 10:19:02;;;;;;;6.90;3.13;;;;;;;;;;4936635;29;20084;-49
2022/06/09 10:21:47;;;;;;;7.50;3.17;;;;;;;;;;4936924;29;20039;-48
2022/06/09 10:24:14;;;;;;;5.78;3.17;;;;;;;;;;4936243;29;20482;-51
2022/06/09 10:26:42;;;;;;;6.95;3.40;;;;;;;;;;4936349;29;20138;-48
2022/06/09 10:29:21;;;;;;;6.78;3.42;;;;;;;;;;4936836;29;20048;-49
2022/06/09 10:32:01;;;;;;;6.60;3.60;;;;;;;;;;4935814;29;20035;-46
2022/06/09 10:34:37;;;;;;;8.10;3.13;;;;;;;;;;4935571;29;20803;-46
2022/06/09 10:37:09;;;;;;;6.35;3.30;;;;;;;;;;4936527;29;20114;-48
2022/06/09 10:39:40;;;;;;;8.10;3.75;;;;;;;;;;4936567;29;20513;-49
2022/06/09 10:42:19;;;;;;;6.32;3.33;;;;;;;;;;4937112;29;20032;-49
2022/06/09 10:45:09;;;;;;;6.43;3.20;;;;;;;;;;4936703;29;20517;-49
2022/06/09 10:56:12;;;;;;;7.63;3.58;;;;;;;;;;4934971;29;20058;-47
2022/06/09 10:58:43;;;;;;;7.50;3.40;;;;;;;;;;4935478;29;20032;-49
2022/06/09 11:01:17;;;;;;;8.10;3.58;;;;;;;;;;4935948;29;20038;-51
2022/06/09 11:03:48;;;;;;;5.78;3.42;;;;;;;;;;4935655;29;20059;-46
2022/06/09 11:06:24;;;;;;;7.15;3.40;;;;;;;;;;4935889;29;20047;-49
2022/06/09 11:08:51;;;;;;;8.23;3.40;;;;;;;;;;4935548;29;20039;-46
2022/06/09 11:11:20;;;;;;;7.30;3.50;;;;;;;;;;4936193;29;20038;-53
2022/06/09 11:13:47;;;;;;;6.63;3.10;;;;;;;;;;4939603;29;20465;-48
2022/06/09 11:16:26;;;;;;;9.55;3.22;;;;;;;;;;4955052;28;20031;-48
2022/06/09 11:18:59;;;;;;;6.07;3.40;;;;;;;;;;4954254;28;20061;-52
2022/06/09 11:21:43;;;;;;;7.35;3.50;;;;;;;;;;4955208;29;20039;-47
2022/06/09 11:24:25;;;;;;;8.25;3.53;;;;;;;;;;4955277;28;20071;-45
2022/06/09 11:26:52;;;;;;;9.02;3.72;;;;;;;;;;4955031;28;20074;-47
2022/06/09 11:29:34;;;;;;;8.55;3.40;;;;;;;;;;4953854;28;20107;-46
2022/06/09 11:32:01;;;;;;;5.80;3.67;;;;;;;;;;4955117;29;20035;-48
2022/06/09 11:34:37;;;;;;;6.38;3.58;;;;;;;;;;4954654;29;20086;-46
2022/06/09 11:37:21;;;;;;;5.70;3.33;;;;;;;;;;4951045;29;20557;-47
2022/06/09 11:39:57;;;;;;;6.85;3.50;;;;;;;;;;4949962;28;20090;-46
2022/06/09 11:42:29;;;;;;;6.07;3.30;;;;;;;;;;4954750;29;20118;-49
2022/06/09 11:44:58;;;;;;;7.43;3.70;;;;;;;;;;4954406;29;20050;-47
2022/06/09 11:47:28;;;;;;;7.68;3.85;;;;;;;;;;4950314;29;20122;-45
2022/06/09 11:49:57;;;;;;;6.70;3.40;;;;;;;;;;4953965;29;20027;-46
2022/06/09 11:52:29;;;;;;;8.05;3.60;;;;;;;;;;4954861;29;20034;-50
2022/06/09 11:54:56;;;;;;;9.75;4.00;;;;;;;;;;4954172;29;20211;-48
2022/06/09 11:57:29;;;;;;;6.95;3.67;;;;;;;;;;4954796;29;20039;-47
2022/06/09 12:00:24;;;;;;;6.28;3.42;;;;;;;;;;4953332;29;20039;-45
2022/06/09 12:02:54;;;;;;;7.00;3.65;;;;;;;;;;4954289;29;20098;-47
2022/06/09 12:05:28;;;;;;;6.20;3.83;;;;;;;;;;4954269;29;20070;-47
2022/06/09 12:08:13;;;;;;;13.10;4.07;;;;;;;;;;4954258;29;20059;-49
2022/06/09 12:10:58;;;;;;;7.00;3.88;;;;;;;;;;4953332;29;20681;-46
2022/06/09 12:13:45;;;;;;;10.73;3.72;;;;;;;;;;4953992;29;20035;-46
2022/06/09 12:16:30;;;;;;;9.65;4.22;;;;;;;;;;4936004;29;20134;-49
2022/06/09 12:19:15;;;;;;;8.48;4.03;;;;;;;;;;4934597;29;20393;-53
2022/06/09 12:21:44;;;;;;;5.93;3.65;;;;;;;;;;4933840;29;20051;-50
2022/06/09 12:24:11;;;;;;;8.85;4.28;;;;;;;;;;4934250;29;20086;-49
2022/06/09 12:26:42;;;;;;;8.15;4.53;;;;;;;;;;4948829;28;20042;-49
2022/06/09 12:29:23;;;;;;;12.90;3.80;;;;;;;;;;4972280;28;20059;-45
2022/06/09 12:32:16;;;;;;;11.25;4.53;;;;;;;;;;4972454;28;20035;-50
2022/06/09 12:34:46;;;;;;;7.57;4.15;;;;;;;;;;4934416;29;20051;-47
2022/06/09 12:37:22;;;;;;;13.02;4.22;;;;;;;;;;4946645;29;20039;-45
2022/06/09 12:39:51;;;;;;;9.68;3.95;;;;;;;;;;4953892;29;20063;-47
2022/06/09 12:42:27;;;;;;;7.88;4.20;;;;;;;;;;4952269;29;20039;-46
2022/06/09 12:45:06;;;;;;;8.75;4.05;;;;;;;;;;4953484;29;20094;-46
2022/06/09 12:47:34;;;;;;;6.28;3.53;;;;;;;;;;4952883;29;20105;-46
2022/06/09 12:50:20;;;;;;;12.73;4.03;;;;;;;;;;4953856;29;20094;-46
2022/06/09 12:52:48;;;;;;;9.07;4.05;;;;;;;;;;4951825;28;20031;-47
2022/06/09 12:55:21;;;;;;;10.45;4.60;;;;;;;;;;4952728;29;20019;-48
2022/06/09 12:57:52;;;;;;;8.93;4.43;;;;;;;;;;4953034;29;20023;-48
2022/06/09 13:00:26;;;;;;;6.95;3.80;;;;;;;;;;4941528;29;20028;-48
2022/06/09 13:02:53;;;;;;;8.77;3.90;;;;;;;;;;4940990;29;20069;-47
2022/06/09 13:05:27;;;;;;;7.50;3.95;;;;;;;;;;4945619;29;20122;-47
2022/06/09 13:08:03;;;;;;;9.15;3.47;;;;;;;;;;4939167;29;20323;-46
2022/06/09 13:10:30;;;;;;;9.15;3.75;;;;;;;;;;4944423;29;20031;-46
2022/06/09 13:13:17;;;;;;;9.15;4.13;;;;;;;;;;4944792;29;20035;-45
2022/06/09 13:15:48;;;;;;;10.50;4.15;;;;;;;;;;4938650;29;20138;-47
2022/06/09 13:18:20;;;;;;;11.73;4.00;;;;;;;;;;4943264;29;20054;-49
2022/06/09 13:20:52;;;;;;;10.90;3.97;;;;;;;;;;4942746;29;20519;-49
2022/06/09 13:23:19;;;;;;;17.98;3.78;;;;;;;;;;4945854;29;20031;-48
2022/06/09 13:25:47;;;;;;;16.13;4.15;;;;;;;;;;4940416;29;20048;-47
2022/06/09 13:28:32;;;;;;;20.77;4.07;;;;;;;;;;4936321;29;20034;-44
2022/06/09 13:31:00;;;;;;;12.40;3.42;;;;;;;;;;4950917;28;20055;-46
2022/06/09 13:33:27;;;;;;;12.63;3.80;;;;;;;;;;4944662;29;20085;-50
2022/06/09 13:36:17;;;;;;;17.55;3.63;;;;;;;;;;4936036;29;20390;-47
2022/06/09 13:50:33;;;;;;;17.77;3.15;;;;;;;;;;5118909;27;20860;-49
2022/06/09 13:53:19;;;;;;;18.58;3.97;;;;;;;;;;5112844;28;20043;-52
2022/06/09 13:55:47;;;;;;;20.38;2.83;;;;;;;;;;5118778;28;20034;-49
2022/06/09 13:58:14;;;;;;;28.00;3.55;;;;;;;;;;5108391;28;20450;-52
2022/06/09 14:00:47;;;;;;;18.17;2.83;;;;;;;;;;5113810;28;20071;-52
2022/06/09 14:03:14;;;;;;;15.70;3.30;;;;;;;;;;5114910;28;20035;-52
2022/06/09 14:05:42;;;;;;;13.82;3.22;;;;;;;;;;5116085;28;20015;-55
2022/06/09 14:08:11;;;;;;;25.13;3.90;;;;;;;;;;5114583;28;20065;-53
2022/06/09 14:10:38;;;;;;;33.53;4.35;;;;;;;;;;5112524;28;20062;-49
2022/06/09 14:13:06;;;;;;;45.65;4.57;;;;;;;;;;5095765;28;20027;-49
2022/06/09 14:15:34;;;;;;;20.98;3.13;;;;;;;;;;5106973;28;20035;-50
2022/06/09 14:18:01;;;;;;;18.02;3.15;;;;;;;;;;5114372;28;20489;-52
2022/06/09 14:20:32;;;;;;;19.00;2.47;;;;;;;;;;5110985;28;20080;-50
2022/06/09 14:23:00;;;;;;;17.80;3.22;;;;;;;;;;5113641;28;20043;-52
2022/06/09 14:25:30;;;;;;;22.23;3.25;;;;;;;;;;5106959;28;20680;-55
2022/06/09 14:27:57;;;;;;;19.17;2.42;;;;;;;;;;5107155;28;20030;-56
2022/06/09 14:30:24;;;;;;;22.45;3.05;;;;;;;;;;5089808;28;20371;-52
2022/06/09 14:32:51;;;;;;;13.23;2.55;;;;;;;;;;5110028;28;20088;-54
2022/06/09 14:35:18;;;;;;;22.13;3.75;;;;;;;;;;5118884;28;20027;-50
2022/06/09 15:09:53;;;;;;;22.00;3.53;;;;;;;;;;4886215;28;20528;-46
2022/06/09 15:12:20;;;;;;;23.00;3.47;;;;;;;;;;5080800;28;20039;-50
2022/06/09 15:14:47;;;;;;;27.90;3.38;;;;;;;;;;5084884;28;20032;-49
2022/06/09 15:17:15;;;;;;;24.92;3.58;;;;;;;;;;5067421;28;20032;-51
2022/06/09 15:19:42;;;;;;;26.00;3.40;;;;;;;;;;5081780;28;20544;-54
2022/06/09 15:22:09;;;;;;;34.22;3.80;;;;;;;;;;5083673;28;20043;-48
2022/06/09 15:24:37;;;;;;;27.05;3.58;;;;;;;;;;5087026;28;20066;-50
2022/06/09 15:27:04;;;;;;;29.70;4.20;;;;;;;;;;5085720;28;20404;-51
2022/06/09 15:29:31;;;;;;;28.92;3.80;;;;;;;;;;5084755;28;20024;-49
2022/06/09 15:31:58;;;;;;;24.95;3.83;;;;;;;;;;5091091;28;20028;-55
2022/06/09 15:34:25;;;;;;;27.67;3.70;;;;;;;;;;5085660;28;20020;-51
2022/06/09 15:36:52;;;;;;;37.42;4.13;;;;;;;;;;5068358;28;20028;-54
2022/06/09 15:39:20;;;;;;;38.38;5.28;;;;;;;;;;5089666;28;20477;-52
2022/06/09 15:41:47;;;;;;;44.45;10.60;;;;;;;;;;5088089;28;20095;-57
2022/06/09 15:44:14;;;;;;;56.72;15.55;;;;;;;;;;5078200;28;20417;-53
2022/06/09 15:46:41;;;;;;;62.55;20.48;;;;;;;;;;5086147;28;20393;-51
2022/06/09 15:49:08;;;;;;;77.13;20.70;;;;;;;;;;5087560;28;20437;-52
2022/06/09 15:51:38;;;;;;;64.05;18.67;;;;;;;;;;5080306;28;20028;-51
2022/06/09 15:54:05;;;;;;;68.07;16.45;;;;;;;;;;5090713;28;20036;-53
2022/06/09 15:56:32;;;;;;;65.93;17.20;;;;;;;;;;5087043;28;20020;-55
2022/06/09 15:59:00;;;;;;;52.97;13.75;;;;;;;;;;5086681;28;20035;-52
2022/06/09 16:01:27;;;;;;;50.63;13.52;;;;;;;;;;5085046;28;20115;-53
2022/06/09 16:03:54;;;;;;;56.25;12.52;;;;;;;;;;5079299;28;20032;-53
2022/06/09 16:06:20;;;;;;;43.80;13.05;;;;;;;;;;5073032;28;20054;-54
2022/06/09 16:08:47;;;;;;;63.08;13.27;;;;;;;;;;5090301;28;20073;-54
2022/06/09 16:11:14;;;;;;;65.40;12.70;;;;;;;;;;5091918;28;20043;-53
2022/06/09 16:13:41;;;;;;;55.53;11.02;;;;;;;;;;5092759;28;20111;-54